Time;durP1;ratioP1;P1;durP2;ratioP2;P2;SDS_P1;SDS_P2;PMS_P1;PMS_P2;Temp;Humidity;BMP_temperature;BMP_pressure;BME280_temperature;BME280_humidity;BME280_pressure;Samples;Min_cycle;Max_cycle;Signal;HPM_P1;HPM_P2
2021/07/29 00:01:12;;;;;;;;;;;16.10;68.60;;;;;;5012668;28;19909;-80
2021/07/29 00:03:38;;;;;;;;;;;16.10;68.80;;;;;;5009090;28;19963;-81
2021/07/29 00:06:03;;;;;;;;;;;16.00;69.80;;;;;;5009396;28;20345;-80
2021/07/29 00:08:29;;;;;;;;;;;16.00;70.70;;;;;;5010800;28;19909;-81
2021/07/29 00:10:55;;;;;;;;;;;16.00;70.90;;;;;;5010296;28;19909;-81
2021/07/29 00:13:20;;;;;;;;;;;16.00;69.90;;;;;;5009682;28;20012;-80
2021/07/29 00:15:46;;;;;;;;;;;16.00;71.20;;;;;;5003163;28;19937;-80
2021/07/29 00:20:39;;;;;;;;;;;15.90;70.70;;;;;;5010862;28;20396;-80
2021/07/29 00:23:05;;;;;;;;;;;15.90;70.30;;;;;;5010692;28;19966;-80
2021/07/29 00:25:31;;;;;;;;;;;15.90;70.70;;;;;;5006042;28;19953;-81
2021/07/29 00:27:56;;;;;;;;;;;15.80;70.70;;;;;;5009312;28;20305;-81
2021/07/29 00:30:23;;;;;;;;;;;15.80;70.90;;;;;;5008707;28;19906;-82
2021/07/29 00:32:51;;;;;;;;;;;15.80;71.30;;;;;;5008690;28;19921;-81
2021/07/29 00:35:16;;;;;;;;;;;15.70;71.70;;;;;;5007949;28;19910;-81
2021/07/29 00:37:43;;;;;;;;;;;15.80;71.10;;;;;;5011388;28;19905;-81
2021/07/29 00:40:09;;;;;;;;;;;15.80;71.00;;;;;;5003977;28;20422;-80
2021/07/29 00:42:34;;;;;;;;;;;15.70;71.80;;;;;;5005932;28;19963;-81
2021/07/29 00:45:00;;;;;;;;;;;15.70;72.20;;;;;;5009970;28;19909;-80
2021/07/29 00:47:26;;;;;;;;;;;15.70;71.60;;;;;;5009108;28;20382;-80
2021/07/29 00:49:51;;;;;;;;;;;15.70;72.60;;;;;;5009519;28;19918;-80
2021/07/29 00:52:21;;;;;;;;;;;15.70;71.80;;;;;;5015966;28;19918;-80
2021/07/29 00:54:47;;;;;;;;;;;15.60;72.80;;;;;;5012503;28;19909;-80
2021/07/29 00:57:13;;;;;;;;;;;15.60;71.40;;;;;;5014076;28;20363;-80
2021/07/29 00:59:38;;;;;;;;;;;15.60;71.10;;;;;;5013246;28;19929;-79
2021/07/29 01:02:04;;;;;;;;;;;15.50;71.50;;;;;;5007576;28;19917;-80
2021/07/29 01:04:29;;;;;;;;;;;15.50;71.50;;;;;;5015846;28;19905;-80
2021/07/29 01:06:55;;;;;;;;;;;15.50;71.90;;;;;;5012312;28;19916;-80
2021/07/29 01:09:21;;;;;;;;;;;15.50;72.20;;;;;;5012414;28;19915;-80
2021/07/29 01:11:46;;;;;;;;;;;15.50;72.00;;;;;;5011947;28;19909;-80
2021/07/29 01:14:12;;;;;;;;;;;15.50;71.80;;;;;;5006960;28;19964;-80
2021/07/29 01:16:38;;;;;;;;;;;15.50;71.80;;;;;;5015027;28;19905;-80
2021/07/29 01:19:05;;;;;;;;;;;15.50;72.00;;;;;;5014640;28;19992;-79
2021/07/29 01:21:31;;;;;;;;;;;15.40;71.80;;;;;;5011760;28;19910;-80
2021/07/29 01:23:57;;;;;;;;;;;15.40;72.70;;;;;;5010861;28;20405;-80
2021/07/29 01:26:23;;;;;;;;;;;15.40;72.50;;;;;;5012101;28;19959;-80
2021/07/29 01:28:49;;;;;;;;;;;15.40;72.20;;;;;;5007895;28;19924;-79
2021/07/29 01:31:14;;;;;;;;;;;15.40;73.00;;;;;;5014918;28;19921;-80
2021/07/29 01:33:40;;;;;;;;;;;15.40;72.40;;;;;;5011529;28;19917;-79
2021/07/29 01:36:06;;;;;;;;;;;15.30;72.30;;;;;;5012183;28;20362;-79
2021/07/29 01:38:31;;;;;;;;;;;15.30;72.60;;;;;;5011446;28;19949;-79
2021/07/29 01:40:57;;;;;;;;;;;15.30;72.30;;;;;;5013267;28;19921;-79
2021/07/29 01:43:23;;;;;;;;;;;15.30;72.20;;;;;;5014764;28;19905;-79
2021/07/29 01:45:49;;;;;;;;;;;15.20;72.00;;;;;;5011495;28;19916;-79
2021/07/29 01:48:15;;;;;;;;;;;15.30;72.70;;;;;;5008137;28;20052;-79
2021/07/29 01:50:43;;;;;;;;;;;15.20;72.20;;;;;;5003422;28;19992;-80
2021/07/29 01:53:09;;;;;;;;;;;15.20;72.80;;;;;;5012843;28;19917;-79
2021/07/29 01:55:34;;;;;;;;;;;15.20;73.70;;;;;;5012947;28;19911;-80
2021/07/29 01:58:00;;;;;;;;;;;15.20;73.20;;;;;;5012723;28;19909;-80
2021/07/29 02:00:25;;;;;;;;;;;15.20;74.40;;;;;;5010174;28;19916;-81
2021/07/29 02:02:51;;;;;;;;;;;15.20;73.20;;;;;;5010279;28;19996;-79
2021/07/29 02:05:16;;;;;;;;;;;15.20;74.20;;;;;;5012952;28;19909;-80
2021/07/29 02:07:42;;;;;;;;;;;15.20;74.50;;;;;;5013447;28;19906;-80
2021/07/29 02:10:08;;;;;;;;;;;15.20;74.30;;;;;;5012469;28;19909;-81
2021/07/29 02:12:33;;;;;;;;;;;15.20;74.70;;;;;;5010752;28;19917;-80
2021/07/29 02:14:59;;;;;;;;;;;15.30;73.80;;;;;;5011028;28;19913;-80
2021/07/29 02:17:25;;;;;;;;;;;15.30;73.60;;;;;;5011410;28;19909;-81
2021/07/29 02:19:50;;;;;;;;;;;15.30;73.90;;;;;;5012577;28;19952;-80
2021/07/29 02:22:16;;;;;;;;;;;15.30;73.40;;;;;;5013020;28;19941;-80
2021/07/29 02:24:41;;;;;;;;;;;15.30;73.60;;;;;;5010873;28;19967;-81
2021/07/29 02:27:07;;;;;;;;;;;15.30;74.20;;;;;;5010550;28;20374;-80
2021/07/29 02:29:32;;;;;;;;;;;15.30;73.80;;;;;;5011015;28;19996;-80
2021/07/29 02:31:58;;;;;;;;;;;15.20;73.50;;;;;;5006847;28;20016;-81
2021/07/29 02:34:23;;;;;;;;;;;15.20;73.20;;;;;;5003645;28;19905;-80
2021/07/29 02:36:50;;;;;;;;;;;15.20;73.40;;;;;;5009659;28;20401;-80
2021/07/29 02:39:15;;;;;;;;;;;15.20;73.40;;;;;;5010451;28;20251;-81
2021/07/29 02:41:41;;;;;;;;;;;15.20;73.00;;;;;;5010617;28;19917;-80
2021/07/29 02:44:07;;;;;;;;;;;15.10;73.60;;;;;;4997193;28;19917;-80
2021/07/29 02:46:32;;;;;;;;;;;15.10;73.40;;;;;;5013859;28;19906;-81
2021/07/29 02:48:58;;;;;;;;;;;15.10;73.10;;;;;;5010895;28;19909;-81
2021/07/29 02:51:23;;;;;;;;;;;15.10;74.20;;;;;;5010480;28;19909;-81
2021/07/29 02:53:49;;;;;;;;;;;15.10;74.00;;;;;;5011449;28;19917;-81
2021/07/29 02:56:14;;;;;;;;;;;15.00;74.00;;;;;;5011963;28;19913;-81
2021/07/29 02:58:40;;;;;;;;;;;15.00;73.60;;;;;;5012686;28;19909;-80
2021/07/29 03:01:05;;;;;;;;;;;15.00;74.40;;;;;;5011553;28;19928;-80
2021/07/29 03:03:31;;;;;;;;;;;14.90;74.10;;;;;;5010195;28;19976;-80
2021/07/29 03:05:57;;;;;;;;;;;14.90;73.70;;;;;;5010298;28;19956;-80
2021/07/29 03:08:22;;;;;;;;;;;14.90;74.10;;;;;;5011343;28;19917;-81
2021/07/29 03:10:48;;;;;;;;;;;14.80;74.60;;;;;;5012225;28;19928;-79
2021/07/29 03:13:14;;;;;;;;;;;14.80;74.40;;;;;;5011432;28;19936;-79
2021/07/29 03:15:40;;;;;;;;;;;14.90;74.70;;;;;;5010013;28;20297;-79
2021/07/29 03:18:05;;;;;;;;;;;14.90;75.00;;;;;;5010046;28;19913;-79
2021/07/29 03:20:31;;;;;;;;;;;14.80;74.20;;;;;;5010060;28;20281;-80
2021/07/29 03:22:56;;;;;;;;;;;14.80;74.00;;;;;;5010493;28;19917;-80
2021/07/29 03:25:22;;;;;;;;;;;14.80;73.80;;;;;;5012549;28;19941;-80
2021/07/29 03:27:47;;;;;;;;;;;14.70;74.50;;;;;;5009801;28;19988;-80
2021/07/29 03:30:13;;;;;;;;;;;14.70;75.00;;;;;;5008377;28;19910;-80
2021/07/29 03:32:38;;;;;;;;;;;14.70;74.50;;;;;;5010640;28;19922;-80
2021/07/29 03:35:04;;;;;;;;;;;14.70;75.80;;;;;;5009952;28;19909;-81
2021/07/29 03:37:31;;;;;;;;;;;14.70;75.00;;;;;;5012726;28;19984;-81
2021/07/29 03:40:03;;;;;;;;;;;14.70;75.00;;;;;;5009972;28;19910;-81
2021/07/29 03:42:32;;;;;;;;;;;14.60;75.70;;;;;;5009434;28;19928;-81
2021/07/29 03:44:58;;;;;;;;;;;14.60;75.30;;;;;;5009494;28;19920;-80
2021/07/29 03:47:24;;;;;;;;;;;14.60;75.60;;;;;;5009486;28;19906;-81
2021/07/29 03:49:49;;;;;;;;;;;14.50;75.50;;;;;;5011402;28;20015;-81
2021/07/29 03:52:15;;;;;;;;;;;14.60;75.60;;;;;;5010644;28;20079;-81
2021/07/29 03:54:40;;;;;;;;;;;14.50;75.40;;;;;;5009419;28;19948;-81
2021/07/29 03:57:08;;;;;;;;;;;14.50;75.20;;;;;;5009419;28;20305;-80
2021/07/29 03:59:35;;;;;;;;;;;14.50;75.30;;;;;;5009553;28;19906;-80
2021/07/29 04:02:02;;;;;;;;;;;14.50;76.50;;;;;;4993543;28;19933;-80
2021/07/29 04:04:27;;;;;;;;;;;14.50;75.80;;;;;;5012686;28;20351;-80
2021/07/29 04:06:53;;;;;;;;;;;14.50;75.60;;;;;;5008343;28;19912;-80
2021/07/29 04:09:18;;;;;;;;;;;14.50;75.60;;;;;;5008892;28;19913;-81
2021/07/29 04:11:44;;;;;;;;;;;14.40;75.80;;;;;;5008641;28;19921;-80
2021/07/29 04:14:09;;;;;;;;;;;14.40;76.00;;;;;;5010161;28;19913;-81
2021/07/29 04:16:35;;;;;;;;;;;14.40;76.00;;;;;;5011716;28;20259;-81
2021/07/29 04:19:00;;;;;;;;;;;14.40;75.70;;;;;;5009442;28;19964;-80
2021/07/29 04:21:26;;;;;;;;;;;14.40;76.10;;;;;;5008756;28;20036;-80
2021/07/29 04:23:51;;;;;;;;;;;14.40;76.30;;;;;;5010517;28;20055;-80
2021/07/29 04:26:17;;;;;;;;;;;14.40;76.30;;;;;;5014034;28;19912;-81
2021/07/29 04:28:42;;;;;;;;;;;14.30;76.40;;;;;;5015353;28;20255;-81
2021/07/29 04:31:08;;;;;;;;;;;14.40;76.20;;;;;;5014100;28;19956;-81
2021/07/29 04:33:33;;;;;;;;;;;14.30;76.10;;;;;;5012898;28;20445;-81
2021/07/29 04:35:59;;;;;;;;;;;14.30;76.30;;;;;;5012762;28;19916;-81
2021/07/29 04:38:24;;;;;;;;;;;14.30;76.50;;;;;;5013039;28;19910;-81
2021/07/29 04:40:59;;;;;;;;;;;14.30;76.00;;;;;;5014751;28;19913;-80
2021/07/29 04:43:25;;;;;;;;;;;14.30;76.30;;;;;;5015828;28;19956;-82
2021/07/29 04:45:51;;;;;;;;;;;14.30;76.50;;;;;;5012747;28;19951;-82
2021/07/29 04:48:17;;;;;;;;;;;14.30;76.60;;;;;;5012820;28;19909;-81
2021/07/29 04:50:42;;;;;;;;;;;14.30;76.80;;;;;;5009654;28;19912;-83
2021/07/29 04:53:08;;;;;;;;;;;14.30;76.60;;;;;;5012857;28;20393;-81
2021/07/29 04:55:35;;;;;;;;;;;14.30;77.10;;;;;;5015603;28;19912;-82
2021/07/29 04:58:02;;;;;;;;;;;14.30;76.50;;;;;;5010676;28;19910;-82
2021/07/29 05:00:29;;;;;;;;;;;14.30;76.70;;;;;;5008806;28;19963;-82
2021/07/29 05:02:55;;;;;;;;;;;14.30;76.70;;;;;;5013868;28;19917;-81
2021/07/29 05:05:20;;;;;;;;;;;14.40;77.00;;;;;;5012149;28;19917;-82
2021/07/29 05:07:49;;;;;;;;;;;14.40;77.40;;;;;;5014801;28;20003;-82
2021/07/29 05:10:15;;;;;;;;;;;14.40;77.50;;;;;;5026177;28;19906;-82
2021/07/29 05:12:40;;;;;;;;;;;14.40;76.80;;;;;;5009948;28;19917;-81
2021/07/29 05:15:06;;;;;;;;;;;14.40;76.70;;;;;;5012233;28;20366;-81
2021/07/29 05:17:31;;;;;;;;;;;14.40;76.90;;;;;;5012335;28;20011;-81
2021/07/29 05:19:57;;;;;;;;;;;14.50;76.70;;;;;;5012788;28;19949;-81
2021/07/29 05:22:22;;;;;;;;;;;14.50;78.00;;;;;;5014825;28;19989;-81
2021/07/29 05:24:48;;;;;;;;;;;14.50;77.50;;;;;;5012001;28;19964;-80
2021/07/29 05:27:13;;;;;;;;;;;14.60;77.30;;;;;;5011797;28;19909;-80
2021/07/29 05:29:39;;;;;;;;;;;14.60;77.10;;;;;;5013505;28;19914;-80
2021/07/29 05:32:05;;;;;;;;;;;14.70;77.30;;;;;;5011593;28;19979;-80
2021/07/29 05:34:32;;;;;;;;;;;14.70;77.20;;;;;;5013813;28;19905;-80
2021/07/29 05:36:58;;;;;;;;;;;14.70;77.00;;;;;;5012093;28;20004;-80
2021/07/29 05:39:23;;;;;;;;;;;14.80;77.80;;;;;;5010038;28;20466;-80
2021/07/29 05:41:49;;;;;;;;;;;14.90;77.70;;;;;;5011591;28;19963;-81
2021/07/29 05:44:14;;;;;;;;;;;14.90;77.60;;;;;;5011014;28;20283;-80
2021/07/29 05:46:40;;;;;;;;;;;15.00;77.00;;;;;;5013414;28;20385;-80
2021/07/29 05:49:05;;;;;;;;;;;15.00;77.20;;;;;;4998326;28;19910;-79
2021/07/29 05:51:31;;;;;;;;;;;15.10;77.00;;;;;;4998131;28;19917;-79
2021/07/29 05:53:56;;;;;;;;;;;15.10;77.30;;;;;;4998057;28;19917;-80
2021/07/29 05:56:22;;;;;;;;;;;15.10;76.80;;;;;;4998977;28;19917;-79
2021/07/29 05:58:48;;;;;;;;;;;15.20;77.40;;;;;;4996611;28;19910;-79
2021/07/29 06:01:13;;;;;;;;;;;15.20;76.90;;;;;;4994260;28;19914;-79
2021/07/29 06:03:39;;;;;;;;;;;15.20;76.90;;;;;;4995282;28;19914;-81
2021/07/29 06:06:04;;;;;;;;;;;15.30;77.20;;;;;;4998270;28;19917;-79
2021/07/29 06:08:30;;;;;;;;;;;15.30;77.00;;;;;;5011960;28;19917;-80
2021/07/29 06:10:56;;;;;;;;;;;15.40;77.10;;;;;;5008071;28;20374;-79
2021/07/29 06:13:21;;;;;;;;;;;15.50;77.20;;;;;;5011019;28;19913;-79
2021/07/29 06:15:47;;;;;;;;;;;15.40;77.00;;;;;;5001595;28;20377;-80
2021/07/29 06:18:13;;;;;;;;;;;15.50;77.00;;;;;;4998764;28;19917;-80
2021/07/29 06:20:39;;;;;;;;;;;15.60;76.90;;;;;;5007252;28;19909;-79
2021/07/29 06:23:04;;;;;;;;;;;15.60;77.50;;;;;;5007988;28;20275;-80
2021/07/29 06:25:30;;;;;;;;;;;15.60;76.90;;;;;;5012369;28;19913;-79
2021/07/29 06:27:55;;;;;;;;;;;15.70;76.80;;;;;;5010574;28;20000;-80
2021/07/29 06:30:21;;;;;;;;;;;15.70;76.60;;;;;;5007850;28;19956;-81
2021/07/29 06:32:46;;;;;;;;;;;15.70;76.80;;;;;;5006911;28;20373;-81
2021/07/29 06:35:12;;;;;;;;;;;15.80;77.60;;;;;;5006541;28;19910;-80
2021/07/29 06:37:38;;;;;;;;;;;15.80;76.80;;;;;;5010047;28;19920;-80
2021/07/29 06:40:04;;;;;;;;;;;15.80;76.50;;;;;;5007477;28;19960;-79
2021/07/29 06:42:30;;;;;;;;;;;15.90;76.50;;;;;;5009502;28;21681;-79
2021/07/29 06:44:56;;;;;;;;;;;15.90;76.60;;;;;;5007210;28;19937;-80
2021/07/29 06:47:21;;;;;;;;;;;15.90;76.60;;;;;;5002654;28;20000;-78
2021/07/29 06:49:48;;;;;;;;;;;16.00;77.20;;;;;;5006726;28;21313;-79
2021/07/29 06:52:13;;;;;;;;;;;16.10;77.20;;;;;;5004958;28;19921;-89
2021/07/29 06:54:39;;;;;;;;;;;16.10;77.00;;;;;;5007544;28;19917;-88
2021/07/29 06:57:08;;;;;;;;;;;16.10;77.10;;;;;;5011920;28;19917;-90
2021/07/29 06:59:34;;;;;;;;;;;16.10;77.00;;;;;;5009694;28;19967;-86
2021/07/29 07:02:00;;;;;;;;;;;16.20;77.00;;;;;;5014064;28;19953;-86
2021/07/29 07:04:26;;;;;;;;;;;16.10;77.20;;;;;;5012683;28;20277;-83
2021/07/29 07:06:51;;;;;;;;;;;16.20;78.10;;;;;;5009420;28;20004;-85
2021/07/29 07:09:17;;;;;;;;;;;16.20;77.70;;;;;;5011719;28;19980;-84
2021/07/29 07:11:42;;;;;;;;;;;16.20;77.60;;;;;;5009744;28;19963;-84
2021/07/29 07:14:09;;;;;;;;;;;16.20;77.30;;;;;;5010744;28;19925;-84
2021/07/29 07:16:35;;;;;;;;;;;16.30;77.10;;;;;;5012633;28;19968;-83
2021/07/29 07:19:01;;;;;;;;;;;16.30;77.00;;;;;;4997437;28;19913;-82
2021/07/29 07:21:27;;;;;;;;;;;16.40;77.10;;;;;;5006616;28;19925;-83
2021/07/29 07:23:52;;;;;;;;;;;16.40;77.80;;;;;;5009928;28;20289;-85
2021/07/29 07:26:19;;;;;;;;;;;16.40;77.80;;;;;;4999654;28;19914;-83
2021/07/29 07:28:45;;;;;;;;;;;16.40;77.90;;;;;;5011048;28;20027;-80
2021/07/29 07:31:10;;;;;;;;;;;16.40;77.40;;;;;;5006112;28;20429;-80
2021/07/29 07:33:36;;;;;;;;;;;16.40;77.40;;;;;;4967689;28;19987;-83
2021/07/29 07:36:01;;;;;;;;;;;16.50;77.30;;;;;;5001115;28;19914;-85
2021/07/29 07:38:27;;;;;;;;;;;16.60;77.30;;;;;;4988089;28;19929;-83
2021/07/29 07:40:52;;;;;;;;;;;16.50;76.90;;;;;;4992386;28;19928;-85
2021/07/29 07:43:18;;;;;;;;;;;16.60;76.90;;;;;;5005648;28;20259;-85
2021/07/29 07:45:43;;;;;;;;;;;16.70;76.70;;;;;;5005825;28;19913;-84
2021/07/29 07:48:09;;;;;;;;;;;16.70;76.40;;;;;;5010430;28;19956;-83
2021/07/29 07:50:38;;;;;;;;;;;16.70;77.60;;;;;;5010590;28;20011;-83
2021/07/29 07:53:05;;;;;;;;;;;16.70;76.20;;;;;;4994252;28;19917;-83
2021/07/29 07:55:30;;;;;;;;;;;16.80;76.30;;;;;;5004207;28;19913;-86
2021/07/29 07:57:56;;;;;;;;;;;16.90;75.80;;;;;;5007715;28;19917;-85
2021/07/29 08:00:21;;;;;;;;;;;16.90;75.40;;;;;;5014168;28;19947;-85
2021/07/29 08:02:47;;;;;;;;;;;16.90;75.60;;;;;;5008105;28;19910;-85
2021/07/29 08:05:13;;;;;;;;;;;17.00;75.50;;;;;;5001117;28;19933;-85
2021/07/29 08:07:38;;;;;;;;;;;17.00;75.30;;;;;;4993653;28;20314;-85
2021/07/29 08:10:04;;;;;;;;;;;17.00;75.30;;;;;;5007276;28;19940;-85
2021/07/29 08:12:29;;;;;;;;;;;17.10;74.90;;;;;;5003857;28;20378;-85
2021/07/29 08:14:55;;;;;;;;;;;17.10;74.30;;;;;;5010054;28;20409;-84
2021/07/29 08:17:20;;;;;;;;;;;17.10;74.50;;;;;;5010572;28;20000;-82
2021/07/29 08:19:46;;;;;;;;;;;17.20;74.50;;;;;;5010600;28;19910;-83
2021/07/29 08:22:11;;;;;;;;;;;17.20;74.20;;;;;;4996025;28;19937;-84
2021/07/29 08:24:37;;;;;;;;;;;17.30;73.20;;;;;;5004497;28;19959;-83
2021/07/29 08:27:03;;;;;;;;;;;17.30;73.40;;;;;;5002206;28;19917;-86
2021/07/29 08:29:30;;;;;;;;;;;17.40;73.40;;;;;;5003720;28;19917;-82
2021/07/29 08:31:59;;;;;;;;;;;17.50;73.30;;;;;;4996166;28;19925;-82
2021/07/29 08:34:25;;;;;;;;;;;17.50;73.40;;;;;;5007208;28;19920;-81
2021/07/29 08:36:50;;;;;;;;;;;17.60;73.00;;;;;;5008739;28;19909;-81
2021/07/29 08:39:16;;;;;;;;;;;17.70;73.00;;;;;;5009008;28;19910;-82
2021/07/29 08:41:41;;;;;;;;;;;17.80;72.20;;;;;;5009752;28;19909;-82
2021/07/29 08:44:07;;;;;;;;;;;17.90;70.80;;;;;;5005401;28;21820;-83
2021/07/29 08:46:35;;;;;;;;;;;18.10;71.50;;;;;;5003890;28;19921;-81
2021/07/29 08:49:01;;;;;;;;;;;18.20;70.50;;;;;;4998861;28;19957;-83
2021/07/29 08:51:27;;;;;;;;;;;18.40;70.80;;;;;;5004203;28;19936;-83
2021/07/29 08:53:53;;;;;;;;;;;18.60;69.30;;;;;;5008264;28;19929;-82
2021/07/29 08:56:23;;;;;;;;;;;18.70;69.70;;;;;;5007758;28;20743;-88
2021/07/29 08:58:49;;;;;;;;;;;18.80;68.40;;;;;;5002910;28;20366;-86
2021/07/29 09:01:15;;;;;;;;;;;18.90;66.50;;;;;;5021160;28;19953;-84
2021/07/29 09:03:41;;;;;;;;;;;19.10;67.20;;;;;;5010805;28;20373;-85
2021/07/29 09:06:08;;;;;;;;;;;19.40;70.10;;;;;;5008175;28;19919;-85
2021/07/29 09:08:50;;;;;;;;;;;19.70;65.50;;;;;;4999125;28;19910;-84
2021/07/29 09:11:37;;;;;;;;;;;19.70;66.00;;;;;;4996128;28;20394;-85
2021/07/29 09:14:12;;;;;;;;;;;19.80;65.90;;;;;;5010526;28;20324;-85
2021/07/29 09:16:54;;;;;;;;;;;19.70;63.00;;;;;;5011649;28;20362;-83
2021/07/29 09:19:39;;;;;;;;;;;19.70;65.70;;;;;;5013516;28;19972;-85
2021/07/29 09:22:08;;;;;;;;;;;19.90;66.20;;;;;;5021518;28;19916;-85
2021/07/29 09:24:33;;;;;;;;;;;20.10;63.30;;;;;;5009091;28;19910;-84
2021/07/29 09:26:59;;;;;;;;;;;20.20;64.40;;;;;;5007109;28;19909;-84
2021/07/29 09:29:26;;;;;;;;;;;20.30;66.10;;;;;;5009151;28;19909;-84
2021/07/29 09:32:05;;;;;;;;;;;19.90;61.20;;;;;;5013596;28;20011;-85
2021/07/29 09:34:45;;;;;;;;;;;19.70;62.10;;;;;;5000538;28;19961;-85
2021/07/29 09:37:11;;;;;;;;;;;19.50;61.30;;;;;;5005926;28;19917;-87
2021/07/29 09:39:37;;;;;;;;;;;19.40;62.40;;;;;;5012963;28;19956;-86
2021/07/29 09:42:16;;;;;;;;;;;19.20;61.30;;;;;;5002910;28;19953;-83
2021/07/29 09:44:43;;;;;;;;;;;19.20;62.40;;;;;;5010816;28;19909;-86
2021/07/29 09:47:09;;;;;;;;;;;19.40;63.10;;;;;;4998285;28;19918;-85
2021/07/29 09:49:35;;;;;;;;;;;19.60;63.60;;;;;;5012198;28;20429;-85
2021/07/29 09:52:01;;;;;;;;;;;19.70;60.50;;;;;;4999464;28;19917;-85
2021/07/29 09:54:27;;;;;;;;;;;19.70;61.40;;;;;;5008150;28;19914;-83
2021/07/29 09:56:53;;;;;;;;;;;19.80;61.60;;;;;;5011322;28;19957;-83
2021/07/29 09:59:18;;;;;;;;;;;19.90;61.50;;;;;;5011271;28;20326;-83
2021/07/29 10:01:44;;;;;;;;;;;19.80;60.70;;;;;;5017812;28;20004;-84
2021/07/29 10:04:10;;;;;;;;;;;19.70;59.80;;;;;;5005829;28;19913;-82
2021/07/29 10:06:37;;;;;;;;;;;19.70;59.50;;;;;;5011183;28;19921;-86
2021/07/29 10:09:08;;;;;;;;;;;19.80;60.80;;;;;;5010926;28;19917;-87
2021/07/29 10:11:36;;;;;;;;;;;20.00;59.20;;;;;;5010184;28;19917;-87
2021/07/29 10:14:01;;;;;;;;;;;20.10;59.90;;;;;;5004068;28;19917;-85
2021/07/29 10:16:56;;;;;;;;;;;20.20;59.70;;;;;;4998440;28;19913;-87
2021/07/29 10:19:21;;;;;;;;;;;20.10;59.60;;;;;;4990495;28;19917;-86
2021/07/29 10:21:47;;;;;;;;;;;20.10;60.30;;;;;;5004108;28;20279;-87
2021/07/29 10:24:13;;;;;;;;;;;20.20;60.80;;;;;;4998047;28;19961;-84
2021/07/29 10:26:57;;;;;;;;;;;20.20;60.50;;;;;;5007723;28;19948;-83
2021/07/29 10:29:24;;;;;;;;;;;20.20;59.50;;;;;;5012403;28;19909;-87
2021/07/29 10:31:51;;;;;;;;;;;20.00;58.50;;;;;;5012145;28;20318;-86
2021/07/29 10:34:30;;;;;;;;;;;20.00;59.00;;;;;;5011592;28;19940;-90
2021/07/29 10:36:59;;;;;;;;;;;20.10;60.30;;;;;;5011130;28;20388;-80
2021/07/29 10:39:25;;;;;;;;;;;20.20;59.70;;;;;;5011322;28;20403;-88
2021/07/29 10:41:52;;;;;;;;;;;20.30;58.20;;;;;;5010514;28;19913;-86
2021/07/29 10:44:36;;;;;;;;;;;20.20;58.00;;;;;;5011609;28;20404;-86
2021/07/29 10:47:03;;;;;;;;;;;20.10;58.60;;;;;;4993433;28;19910;-78
2021/07/29 10:49:43;;;;;;;;;;;20.00;59.70;;;;;;5010856;28;19916;-78
2021/07/29 10:52:09;;;;;;;;;;;20.00;59.60;;;;;;5011738;28;20000;-81
2021/07/29 10:54:39;;;;;;;;;;;20.10;59.50;;;;;;4998248;28;19921;-84
2021/07/29 10:57:05;;;;;;;;;;;20.20;59.70;;;;;;4995215;28;19964;-81
2021/07/29 10:59:34;;;;;;;;;;;20.40;58.30;;;;;;4993035;28;19914;-81
2021/07/29 11:02:07;;;;;;;;;;;20.50;59.60;;;;;;5006683;28;19964;-81
2021/07/29 11:04:52;;;;;;;;;;;20.60;59.40;;;;;;5005126;28;20297;-81
2021/07/29 11:07:19;;;;;;;;;;;20.70;58.50;;;;;;5003571;28;19937;-84
2021/07/29 11:09:45;;;;;;;;;;;20.60;58.20;;;;;;5003995;28;19915;-84
2021/07/29 11:12:12;;;;;;;;;;;20.50;56.30;;;;;;5003505;28;20285;-84
2021/07/29 11:14:39;;;;;;;;;;;20.30;56.70;;;;;;5003297;28;19980;-81
2021/07/29 11:17:04;;;;;;;;;;;20.40;58.50;;;;;;5005546;28;19916;-81
2021/07/29 11:19:41;;;;;;;;;;;20.40;56.10;;;;;;4996349;28;19909;-82
2021/07/29 11:22:07;;;;;;;;;;;20.40;57.30;;;;;;5004148;28;19988;-82
2021/07/29 11:24:33;;;;;;;;;;;20.60;58.20;;;;;;5007027;28;19948;-83
2021/07/29 11:26:59;;;;;;;;;;;20.70;54.40;;;;;;5003359;28;19957;-80
2021/07/29 11:29:25;;;;;;;;;;;20.50;53.50;;;;;;5005072;28;19917;-80
2021/07/29 11:31:54;;;;;;;;;;;20.70;54.80;;;;;;4992858;28;19918;-83
2021/07/29 11:34:30;;;;;;;;;;;20.70;56.30;;;;;;5010265;28;19980;-83
2021/07/29 11:36:56;;;;;;;;;;;20.70;53.90;;;;;;5008864;28;20290;-84
2021/07/29 11:39:22;;;;;;;;;;;20.70;54.20;;;;;;5010978;28;19917;-81
2021/07/29 11:41:58;;;;;;;;;;;20.70;54.30;;;;;;5009828;28;19912;-80
2021/07/29 11:44:39;;;;;;;;;;;20.70;55.40;;;;;;5010070;28;20366;-80
2021/07/29 11:47:05;;;;;;;;;;;20.70;54.50;;;;;;4995473;28;19906;-80
2021/07/29 11:49:43;;;;;;;;;;;20.70;53.70;;;;;;5012766;28;19920;-80
2021/07/29 11:52:10;;;;;;;;;;;20.80;55.10;;;;;;4999786;28;20326;-80
2021/07/29 11:54:38;;;;;;;;;;;20.90;54.40;;;;;;5007237;28;19935;-80
2021/07/29 11:57:05;;;;;;;;;;;21.10;54.70;;;;;;5009123;28;19913;-80
2021/07/29 11:59:37;;;;;;;;;;;21.20;54.00;;;;;;5010375;28;19952;-80
2021/07/29 12:02:03;;;;;;;;;;;21.30;53.30;;;;;;4985884;28;20008;-80
2021/07/29 12:04:30;;;;;;;;;;;21.40;55.10;;;;;;5007576;28;19905;-80
2021/07/29 12:06:56;;;;;;;;;;;21.60;54.50;;;;;;5010196;28;19910;-80
2021/07/29 12:09:22;;;;;;;;;;;21.90;54.70;;;;;;5009226;28;19955;-84
2021/07/29 12:11:50;;;;;;;;;;;22.20;54.00;;;;;;5008782;28;19910;-84
2021/07/29 12:14:15;;;;;;;;;;;22.30;50.20;;;;;;5008996;28;19918;-84
2021/07/29 12:16:48;;;;;;;;;;;22.50;53.30;;;;;;5009666;28;19932;-83
2021/07/29 12:19:14;;;;;;;;;;;22.70;53.80;;;;;;5003849;28;19972;-82
2021/07/29 12:21:39;;;;;;;;;;;22.70;50.00;;;;;;5002510;28;19914;-79
2021/07/29 12:24:05;;;;;;;;;;;22.70;51.00;;;;;;5007659;28;19909;-79
2021/07/29 12:26:30;;;;;;;;;;;22.50;49.20;;;;;;5004626;28;19920;-79
2021/07/29 12:28:56;;;;;;;;;;;22.40;51.90;;;;;;4992616;28;19921;-79
2021/07/29 12:31:26;;;;;;;;;;;22.50;51.90;;;;;;4991743;28;19921;-79
2021/07/29 12:33:53;;;;;;;;;;;22.40;49.00;;;;;;5005718;28;19987;-79
2021/07/29 12:36:20;;;;;;;;;;;22.10;49.30;;;;;;5009389;28;20420;-78
2021/07/29 12:38:55;;;;;;;;;;;22.00;51.10;;;;;;5010135;28;19909;-83
2021/07/29 12:41:28;;;;;;;;;;;21.90;52.30;;;;;;5005127;28;19914;-83
2021/07/29 12:44:14;;;;;;;;;;;22.00;52.70;;;;;;5002154;28;20403;-84
2021/07/29 12:46:40;;;;;;;;;;;22.20;53.70;;;;;;4997547;28;20270;-83
2021/07/29 12:49:06;;;;;;;;;;;22.30;52.50;;;;;;5003121;28;20008;-81
2021/07/29 12:51:33;;;;;;;;;;;22.20;51.20;;;;;;5007408;28;20393;-81
2021/07/29 12:53:58;;;;;;;;;;;22.00;51.30;;;;;;5013068;28;19963;-79
2021/07/29 12:56:24;;;;;;;;;;;21.80;51.50;;;;;;5012894;28;20011;-81
2021/07/29 12:58:49;;;;;;;;;;;21.80;52.30;;;;;;5012659;28;20370;-80
2021/07/29 13:01:15;;;;;;;;;;;21.80;52.30;;;;;;5022956;28;19905;-79
2021/07/29 13:03:44;;;;;;;;;;;21.70;52.00;;;;;;5009628;28;20363;-79
2021/07/29 13:06:09;;;;;;;;;;;21.70;51.90;;;;;;5011382;28;19921;-81
2021/07/29 13:08:35;;;;;;;;;;;21.70;52.00;;;;;;5012637;28;19910;-80
2021/07/29 13:11:02;;;;;;;;;;;21.80;52.30;;;;;;5012846;28;19918;-80
2021/07/29 13:13:29;;;;;;;;;;;21.70;52.20;;;;;;5014292;28;19925;-80
2021/07/29 13:15:55;;;;;;;;;;;21.80;52.20;;;;;;5010508;28;19909;-80
2021/07/29 13:18:20;;;;;;;;;;;21.80;51.90;;;;;;5004415;28;19922;-80
2021/07/29 13:20:46;;;;;;;;;;;21.80;51.00;;;;;;5001128;28;19917;-81
2021/07/29 13:23:15;;;;;;;;;;;21.70;51.40;;;;;;5013395;28;19992;-81
2021/07/29 13:25:41;;;;;;;;;;;21.80;52.30;;;;;;5014117;28;19909;-81
2021/07/29 13:28:07;;;;;;;;;;;21.90;52.10;;;;;;5013146;28;19913;-80
2021/07/29 13:30:32;;;;;;;;;;;21.90;52.10;;;;;;5011462;28;20279;-81
2021/07/29 13:32:58;;;;;;;;;;;21.90;51.10;;;;;;5011198;28;19953;-80
2021/07/29 13:35:24;;;;;;;;;;;22.00;52.20;;;;;;5012756;28;20294;-81
2021/07/29 13:37:49;;;;;;;;;;;22.10;51.80;;;;;;5012445;28;19944;-80
2021/07/29 13:40:15;;;;;;;;;;;22.20;50.80;;;;;;5011981;28;19905;-80
2021/07/29 13:42:42;;;;;;;;;;;22.30;52.10;;;;;;5012003;28;19921;-80
2021/07/29 13:45:20;;;;;;;;;;;22.50;51.70;;;;;;5011383;28;20298;-79
2021/07/29 13:47:46;;;;;;;;;;;22.60;50.50;;;;;;5012625;28;19949;-82
2021/07/29 13:50:12;;;;;;;;;;;22.60;49.60;;;;;;5013136;28;19910;-82
2021/07/29 13:52:38;;;;;;;;;;;22.60;49.70;;;;;;5012915;28;19920;-81
2021/07/29 13:55:04;;;;;;;;;;;22.70;48.80;;;;;;5011724;28;19952;-81
2021/07/29 13:57:30;;;;;;;;;;;22.70;50.60;;;;;;5010110;28;19913;-83
2021/07/29 13:59:55;;;;;;;;;;;22.80;49.70;;;;;;5012202;28;19913;-82
2021/07/29 14:02:22;;;;;;;;;;;22.80;48.00;;;;;;5024428;28;20008;-82
2021/07/29 14:04:47;;;;;;;;;;;22.70;48.50;;;;;;5013749;28;20330;-82
2021/07/29 14:07:13;;;;;;;;;;;22.80;49.00;;;;;;5012328;28;20059;-82
2021/07/29 14:09:39;;;;;;;;;;;22.80;49.40;;;;;;5011104;28;20412;-80
2021/07/29 14:12:05;;;;;;;;;;;22.80;49.70;;;;;;5010926;28;20015;-80
2021/07/29 14:14:31;;;;;;;;;;;22.80;48.40;;;;;;5007963;28;19916;-81
2021/07/29 14:16:57;;;;;;;;;;;22.90;49.10;;;;;;4994144;28;19918;-79